Time;durP1;ratioP1;P1;durP2;ratioP2;P2;SDS_P1;SDS_P2;PMS_P1;PMS_P2;Temp;Humidity;BMP_temperature;BMP_pressure;BME280_temperature;BME280_humidity;BME280_pressure;Samples;Min_cycle;Max_cycle;Signal;HPM_P1;HPM_P2
2023/12/09 00:01:28;;;;;;;13.73;8.53;;;;;;;-11.98;95.77;103065.91;5068060;28;20135;-67
2023/12/09 00:03:53;;;;;;;13.67;10.20;;;;;;;-12.05;94.97;103080.31;5052531;28;20122;-69
2023/12/09 00:06:22;;;;;;;13.23;9.03;;;;;;;-12.04;96.58;103086.31;5034521;28;20052;-66
2023/12/09 00:08:48;;;;;;;14.65;8.77;;;;;;;-12.09;96.65;103093.06;5052502;28;20048;-70
2023/12/09 00:11:13;;;;;;;16.00;9.90;;;;;;;-12.06;96.93;103104.28;5052688;28;20135;-64
2023/12/09 00:13:39;;;;;;;17.07;8.90;;;;;;;-12.01;97.64;103112.09;5052355;28;20043;-67
2023/12/09 00:16:05;;;;;;;15.50;9.60;;;;;;;-12.08;97.70;103081.94;5050898;28;20131;-64
2023/12/09 00:18:30;;;;;;;18.23;10.65;;;;;;;-12.01;97.81;103086.41;5052283;28;20439;-65
2023/12/09 00:20:56;;;;;;;13.30;9.40;;;;;;;-12.09;97.33;103077.66;5051998;28;20039;-68
2023/12/09 00:23:22;;;;;;;15.13;10.57;;;;;;;-11.90;97.71;103097.78;5053810;28;20029;-67
2023/12/09 00:25:48;;;;;;;11.23;8.23;;;;;;;-12.23;97.65;103049.91;5054336;28;20057;-66
2023/12/09 00:28:13;;;;;;;11.63;7.90;;;;;;;-11.91;98.07;103080.63;5051478;28;20372;-66
2023/12/09 00:30:39;;;;;;;14.70;9.33;;;;;;;-12.01;97.07;103056.44;5053234;28;20550;-68
2023/12/09 00:33:05;;;;;;;15.23;10.18;;;;;;;-12.08;97.02;103059.69;5052167;28;20047;-67
2023/12/09 00:35:31;;;;;;;21.50;10.17;;;;;;;-12.04;97.83;103078.63;5051200;28;20096;-67
2023/12/09 00:37:56;;;;;;;14.57;9.67;;;;;;;-11.97;98.98;103072.78;5051078;28;20119;-66
2023/12/09 00:40:22;;;;;;;15.40;9.73;;;;;;;-11.98;98.51;103071.91;5051845;28;20049;-66
2023/12/09 00:42:48;;;;;;;15.17;8.90;;;;;;;-11.92;99.50;103076.31;5051812;28;20037;-68
2023/12/09 00:45:14;;;;;;;14.77;9.93;;;;;;;-11.86;99.86;103075.59;5051591;28;20025;-67
2023/12/09 00:47:40;;;;;;;15.18;9.27;;;;;;;-11.81;99.27;103074.03;5051477;28;20118;-65
2023/12/09 00:50:06;;;;;;;13.33;8.83;;;;;;;-11.92;99.45;103048.06;5051913;28;20178;-66
2023/12/09 00:52:32;;;;;;;12.45;9.40;;;;;;;-11.94;99.33;103047.16;5051756;28;20306;-67
2023/12/09 00:55:00;;;;;;;13.77;9.53;;;;;;;-11.84;99.25;103071.38;5051690;28;20091;-66
2023/12/09 00:57:25;;;;;;;18.60;8.70;;;;;;;-11.82;99.73;103073.16;5051693;28;20492;-65
2023/12/09 00:59:51;;;;;;;14.07;8.80;;;;;;;-11.97;99.36;103047.09;5050337;28;20072;-65
2023/12/09 01:02:16;;;;;;;13.93;9.80;;;;;;;-12.11;99.03;103028.81;5051330;28;20433;-66
2023/12/09 01:04:43;;;;;;;11.93;9.03;;;;;;;-12.01;99.76;103048.72;5051439;28;20028;-66
2023/12/09 01:07:11;;;;;;;11.98;9.27;;;;;;;-11.94;98.98;103060.88;5051818;28;20090;-66
2023/12/09 01:09:36;;;;;;;16.45;9.52;;;;;;;-11.82;98.63;103083.44;5050372;28;20052;-63
2023/12/09 01:12:02;;;;;;;14.97;9.80;;;;;;;-11.80;98.58;103068.91;5050306;28;20025;-68
2023/12/09 01:14:28;;;;;;;18.03;10.73;;;;;;;-12.17;98.75;102992.69;5049905;28;20041;-66
2023/12/09 01:16:53;;;;;;;14.50;8.93;;;;;;;-11.59;98.57;103077.06;5051025;28;20412;-67
2023/12/09 01:19:19;;;;;;;15.40;10.20;;;;;;;-11.58;98.07;103068.50;5051109;28;20043;-66
2023/12/09 01:21:44;;;;;;;12.43;9.13;;;;;;;-11.69;97.06;103044.28;5051511;28;20047;-64
2023/12/09 01:24:11;;;;;;;12.83;9.43;;;;;;;-12.04;96.97;102998.97;5051155;28;20143;-64
2023/12/09 01:26:36;;;;;;;13.65;8.98;;;;;;;-11.66;97.26;103075.19;5051287;28;20044;-65
2023/12/09 01:29:03;;;;;;;14.73;9.63;;;;;;;-11.99;98.45;103031.66;5051589;28;20037;-67
2023/12/09 01:31:30;;;;;;;12.45;8.65;;;;;;;-12.45;98.84;102955.22;5051157;28;20075;-66
2023/12/09 01:33:56;;;;;;;15.23;8.60;;;;;;;-11.78;98.89;103058.66;5050994;28;20051;-63
2023/12/09 01:36:21;;;;;;;12.27;8.73;;;;;;;-11.77;99.19;103061.25;5049641;28;20551;-66
2023/12/09 01:38:47;;;;;;;17.57;9.23;;;;;;;-11.72;98.74;103051.94;5052584;28;20040;-65
2023/12/09 01:41:12;;;;;;;16.53;9.60;;;;;;;-11.68;99.02;103056.28;5054966;28;20549;-64
2023/12/09 01:43:38;;;;;;;14.80;10.23;;;;;;;-11.70;98.43;103047.69;5054881;28;20048;-66
2023/12/09 01:46:10;;;;;;;13.43;9.10;;;;;;;-11.76;98.09;103047.56;5054977;28;20523;-67
2023/12/09 01:48:37;;;;;;;15.50;12.15;;;;;;;-11.74;98.93;103045.88;5055158;28;20029;-66
2023/12/09 01:51:04;;;;;;;16.83;10.20;;;;;;;-11.78;97.89;103033.84;5054998;28;20072;-67
2023/12/09 01:53:30;;;;;;;15.85;10.57;;;;;;;-12.46;97.94;102932.94;5054980;28;20399;-67
2023/12/09 01:56:02;;;;;;;15.77;10.48;;;;;;;-11.97;99.64;103008.56;5055533;28;20132;-66
2023/12/09 01:58:27;;;;;;;13.82;9.50;;;;;;;-11.89;99.41;103004.44;5054885;28;20036;-66
2023/12/09 02:00:53;;;;;;;13.60;8.97;;;;;;;-11.78;99.72;103015.84;5054793;28;20102;-67
2023/12/09 02:03:19;;;;;;;12.60;8.13;;;;;;;-11.94;99.01;102970.94;5053652;28;20039;-66
2023/12/09 02:05:45;;;;;;;13.87;8.60;;;;;;;-11.88;97.60;103001.03;5053166;28;20053;-67
2023/12/09 02:08:14;;;;;;;18.40;10.03;;;;;;;-11.73;98.59;103023.63;5054515;28;20040;-67
2023/12/09 02:10:39;;;;;;;15.05;10.15;;;;;;;-11.86;98.56;102998.50;5054547;28;20041;-67
2023/12/09 02:13:14;;;;;;;14.97;9.67;;;;;;;-12.34;98.68;102917.84;5052970;28;20029;-67
2023/12/09 02:15:47;;;;;;;13.25;9.45;;;;;;;-11.77;98.98;103009.84;5053113;28;20033;-68
2023/12/09 02:18:12;;;;;;;13.00;9.68;;;;;;;-11.74;98.44;103004.75;5054658;28;20041;-65
2023/12/09 02:20:38;;;;;;;16.23;10.00;;;;;;;-11.71;98.12;103004.81;5053128;28;20087;-69
2023/12/09 02:23:05;;;;;;;16.57;9.73;;;;;;;-11.62;98.18;103002.44;5054362;28;20036;-66
2023/12/09 02:25:31;;;;;;;14.77;9.23;;;;;;;-11.88;97.31;102960.78;5053842;28;20486;-65
2023/12/09 02:28:00;;;;;;;11.77;10.27;;;;;;;-11.75;97.23;102991.88;5053891;28;20071;-66
2023/12/09 02:30:30;;;;;;;;;;;;;;;-11.65;97.57;103015.22;5054739;28;20037;-68
2023/12/09 02:32:58;;;;;;;14.27;10.02;;;;;;;-11.91;97.68;102976.16;5054288;28;20047;-67
2023/12/09 02:35:26;;;;;;;12.70;8.75;;;;;;;-11.88;98.57;102975.34;5054314;28;20044;-65
2023/12/09 02:37:52;;;;;;;13.77;9.45;;;;;;;-11.89;98.43;102983.88;5054000;28;20072;-67
2023/12/09 02:40:19;;;;;;;17.50;10.98;;;;;;;-11.80;99.11;103007.25;5052550;28;20073;-64
2023/12/09 02:42:46;;;;;;;13.32;9.52;;;;;;;-11.83;99.13;103014.88;5052757;28;20033;-65
2023/12/09 02:45:12;;;;;;;14.48;9.02;;;;;;;-11.75;99.24;103007.31;5052632;28;20041;-64
2023/12/09 02:47:37;;;;;;;12.32;9.30;;;;;;;-11.63;99.41;103005.84;5053842;28;20492;-67
2023/12/09 02:50:04;;;;;;;13.20;8.83;;;;;;;-11.70;98.96;103001.41;5053024;28;20090;-67
2023/12/09 02:52:29;;;;;;;14.13;10.60;;;;;;;-12.02;98.53;102945.94;5053686;28;20075;-67
2023/12/09 02:54:55;;;;;;;15.43;10.47;;;;;;;-11.94;99.05;102970.06;5053578;28;20029;-67
2023/12/09 02:57:20;;;;;;;14.03;10.17;;;;;;;-11.94;99.37;102981.22;5052503;28;20048;-65
2023/12/09 02:59:46;;;;;;;12.20;8.63;;;;;;;-11.70;100.00;103001.41;5053428;28;20040;-66
2023/12/09 03:02:12;;;;;;;17.47;11.37;;;;;;;-11.78;99.42;103003.00;5053835;28;20041;-67
2023/12/09 03:04:41;;;;;;;15.93;8.53;;;;;;;-11.71;100.00;103004.81;5053320;28;20040;-64
2023/12/09 03:07:06;;;;;;;;;;;;;;;-11.61;100.00;103001.59;5053962;28;20049;-66
2023/12/09 03:09:32;;;;;;;12.23;9.37;;;;;;;-11.54;99.84;102997.47;5053506;28;19939;-67
2023/12/09 03:11:57;;;;;;;16.10;10.40;;;;;;;-12.21;98.37;102889.00;5052703;28;20033;-65
2023/12/09 03:14:23;;;;;;;12.77;9.27;;;;;;;-11.52;98.69;103005.22;5052594;28;20037;-64
2023/12/09 03:16:49;;;;;;;13.53;9.37;;;;;;;-11.57;98.87;102987.97;5053637;28;20407;-66
2023/12/09 03:19:14;;;;;;;11.63;9.30;;;;;;;-11.54;98.83;103001.75;5053510;28;20045;-66
2023/12/09 03:21:40;;;;;;;13.43;9.47;;;;;;;-11.65;98.58;103004.94;5053267;28;20040;-66
2023/12/09 03:24:05;;;;;;;13.47;9.30;;;;;;;-11.66;98.50;103010.94;5053204;28;20032;-63
2023/12/09 03:26:31;;;;;;;13.20;10.60;;;;;;;-11.72;99.41;102997.94;5053173;28;20041;-66
2023/12/09 03:28:57;;;;;;;16.03;8.70;;;;;;;-11.69;99.38;103008.28;5053374;28;20037;-67
2023/12/09 03:31:22;;;;;;;11.80;8.30;;;;;;;-11.81;99.58;102982.38;5053320;28;20045;-66
2023/12/09 03:33:48;;;;;;;15.13;10.70;;;;;;;-11.66;98.97;103003.22;5052948;28;20063;-68
2023/12/09 03:36:14;;;;;;;13.17;8.53;;;;;;;-11.75;98.92;103000.47;5053044;28;20484;-66
2023/12/09 03:38:42;;;;;;;16.03;11.23;;;;;;;-11.92;98.85;102958.13;5052902;28;20136;-65
2023/12/09 03:41:08;;;;;;;15.40;9.88;;;;;;;-11.55;99.54;103007.72;5051973;28;20029;-66
2023/12/09 03:43:34;;;;;;;13.13;8.68;;;;;;;-11.63;98.40;103007.53;5053121;28;20416;-66
2023/12/09 03:46:00;;;;;;;11.77;8.50;;;;;;;-11.76;98.52;102991.00;5053104;28;20036;-66
2023/12/09 03:48:28;;;;;;;12.87;9.07;;;;;;;-11.89;98.97;102974.47;5052676;28;20480;-68
2023/12/09 03:50:54;;;;;;;;;;;;;;;-11.66;99.70;103007.47;5053269;28;20033;-65
2023/12/09 03:53:20;;;;;;;13.83;9.60;;;;;;;-11.67;99.36;102992.91;5052802;28;19917;-67
2023/12/09 03:55:45;;;;;;;17.47;11.03;;;;;;;-11.79;99.02;102987.53;5052584;28;20484;-67
2023/12/09 03:58:11;;;;;;;12.53;8.23;;;;;;;-11.93;99.30;102975.25;5052635;28;20029;-71
2023/12/09 04:00:37;;;;;;;14.30;9.63;;;;;;;-11.92;99.65;102976.97;5053585;28;20515;-68
2023/12/09 04:03:03;;;;;;;13.43;8.87;;;;;;;-11.77;100.00;102991.84;5053414;28;20033;-68
2023/12/09 04:05:29;;;;;;;15.15;9.93;;;;;;;-11.85;99.54;102980.59;5053378;28;20489;-68
2023/12/09 04:07:55;;;;;;;13.68;8.77;;;;;;;-11.79;99.84;102980.72;5052925;28;20072;-66
2023/12/09 04:10:21;;;;;;;15.97;11.30;;;;;;;-11.64;100.00;103011.81;5052654;28;20468;-66
2023/12/09 04:12:46;;;;;;;14.90;9.23;;;;;;;-11.63;99.91;103008.41;5052378;28;20068;-67
2023/12/09 04:15:12;;;;;;;11.13;8.60;;;;;;;-11.63;99.68;103003.28;5052623;28;20111;-66
2023/12/09 04:17:38;;;;;;;17.83;10.80;;;;;;;-11.83;99.15;102967.75;5052402;28;20045;-67
2023/12/09 04:20:07;;;;;;;16.87;10.20;;;;;;;-11.82;100.00;102979.78;5052397;28;20048;-69
2023/12/09 04:22:33;;;;;;;18.42;9.82;;;;;;;-11.76;100.00;102985.88;5051142;28;20468;-69
2023/12/09 04:24:59;;;;;;;13.43;9.50;;;;;;;-11.68;99.58;103007.47;5052324;28;20110;-68
2023/12/09 04:27:24;;;;;;;14.60;10.30;;;;;;;-11.88;99.19;102970.19;5051911;28;20470;-69
2023/12/09 04:29:51;;;;;;;14.80;9.40;;;;;;;-11.81;99.03;102986.66;5051845;28;20063;-65
2023/12/09 04:32:16;;;;;;;13.23;9.52;;;;;;;-12.18;99.76;102928.44;5051807;28;20137;-65
2023/12/09 04:34:42;;;;;;;13.47;9.00;;;;;;;-11.78;99.91;103008.13;5051984;28;20500;-68
2023/12/09 04:37:08;;;;;;;14.52;8.77;;;;;;;-11.74;100.00;103009.03;5051640;28;20040;-64
2023/12/09 04:39:33;;;;;;;11.83;8.10;;;;;;;-11.72;99.48;103013.38;5053016;28;20039;-65
2023/12/09 04:41:59;;;;;;;14.00;9.87;;;;;;;-12.00;99.97;102969.94;5055185;28;20443;-64
2023/12/09 04:44:25;;;;;;;13.10;9.47;;;;;;;-11.89;100.00;102995.03;5055532;28;20033;-67
2023/12/09 04:46:51;;;;;;;18.45;10.30;;;;;;;-12.04;100.00;102974.16;5052197;28;20033;-66
2023/12/09 04:49:17;;;;;;;17.80;10.07;;;;;;;-11.81;100.00;103005.50;5052457;28;20043;-67
2023/12/09 04:51:42;;;;;;;15.53;8.97;;;;;;;-11.73;100.00;103003.94;5051763;28;20508;-66
2023/12/09 04:54:08;;;;;;;14.60;8.97;;;;;;;-11.97;99.90;102967.44;5051996;28;20068;-68
2023/12/09 04:56:33;;;;;;;15.13;9.77;;;;;;;-11.71;100.00;103003.97;5051686;28;20048;-65
2023/12/09 04:59:00;;;;;;;11.23;9.10;;;;;;;-11.69;99.69;103003.16;5052436;28;20086;-64
2023/12/09 05:01:26;;;;;;;17.48;10.45;;;;;;;-11.73;99.97;103001.34;5052192;28;20087;-65
2023/12/09 05:03:52;;;;;;;14.27;9.75;;;;;;;-11.82;99.85;102990.06;5050752;28;20029;-67
2023/12/09 05:06:20;;;;;;;13.63;9.20;;;;;;;-11.81;100.00;102991.78;5051956;28;20133;-65
2023/12/09 05:08:47;;;;;;;12.57;9.20;;;;;;;-11.69;100.00;103012.56;5051125;28;20060;-66
2023/12/09 05:11:13;;;;;;;16.48;9.88;;;;;;;-11.70;100.00;103006.56;5052527;28;20049;-66
2023/12/09 05:13:38;;;;;;;18.27;9.47;;;;;;;-11.75;100.00;102997.88;5052102;28;20078;-67
2023/12/09 05:16:05;;;;;;;16.90;10.63;;;;;;;-11.68;100.00;103010.03;5050807;28;20037;-64
2023/12/09 05:18:32;;;;;;;15.95;8.50;;;;;;;-11.88;99.70;102970.19;5051546;28;20068;-67
2023/12/09 05:20:58;;;;;;;14.77;10.07;;;;;;;-11.69;99.74;103015.13;5051261;28;20062;-67
2023/12/09 05:23:23;;;;;;;14.63;9.60;;;;;;;-11.70;100.00;103023.69;5051734;28;20119;-68
2023/12/09 05:25:52;;;;;;;12.13;8.93;;;;;;;-11.78;100.00;103007.28;5051719;28;20037;-68
2023/12/09 05:28:18;;;;;;;14.90;10.00;;;;;;;-11.76;100.00;103001.28;5051214;28;20500;-65
2023/12/09 05:30:43;;;;;;;17.10;10.00;;;;;;;-11.79;100.00;102990.13;5049818;28;20048;-68
2023/12/09 05:33:12;;;;;;;16.53;10.40;;;;;;;-13.13;99.97;102762.06;5051322;28;20404;-66
2023/12/09 05:35:38;;;;;;;17.53;11.07;;;;;;;-11.78;100.00;103005.56;5052228;28;20132;-66
2023/12/09 05:38:03;;;;;;;19.03;11.77;;;;;;;-11.69;100.00;103018.56;5052469;28;20112;-66
2023/12/09 05:40:29;;;;;;;21.23;12.73;;;;;;;-11.57;100.00;103018.81;5051898;28;20392;-65
2023/12/09 05:42:55;;;;;;;18.10;11.60;;;;;;;-11.83;99.83;102978.91;5050816;28;20032;-67
2023/12/09 05:45:20;;;;;;;14.83;9.87;;;;;;;-11.74;99.90;102997.06;5051760;28;20500;-64
2023/12/09 05:47:47;;;;;;;17.40;10.73;;;;;;;-11.63;100.00;103010.97;5050382;28;20041;-67
2023/12/09 05:50:12;;;;;;;17.60;11.98;;;;;;;-11.70;100.00;103011.69;5051849;28;20035;-66
2023/12/09 05:52:41;;;;;;;17.20;13.63;;;;;;;-11.71;100.00;102997.13;5053164;28;20427;-66
2023/12/09 05:55:06;;;;;;;19.92;12.75;;;;;;;-11.65;100.00;103010.09;5053588;28;20033;-66
2023/12/09 05:57:32;;;;;;;17.67;11.03;;;;;;;-11.59;99.70;103020.50;5053498;28;20457;-67
2023/12/09 05:59:58;;;;;;;19.37;11.80;;;;;;;-11.74;100.00;102996.19;5052157;28;20049;-67
2023/12/09 06:02:24;;;;;;;17.97;10.97;;;;;;;-11.68;100.00;103012.59;5051860;28;20033;-67
2023/12/09 06:04:49;;;;;;;31.73;15.03;;;;;;;-11.71;100.00;103015.09;5051706;28;20033;-66
2023/12/09 06:07:18;;;;;;;24.07;12.57;;;;;;;-11.69;100.00;103003.16;5052066;28;20067;-67
2023/12/09 06:09:43;;;;;;;20.95;11.38;;;;;;;-11.72;100.00;102999.66;5052017;28;20170;-68
2023/12/09 06:12:09;;;;;;;18.77;12.03;;;;;;;-11.77;100.00;102994.41;5050622;28;20045;-65
2023/12/09 06:14:35;;;;;;;19.23;10.57;;;;;;;-11.68;100.00;102999.75;5052154;28;20040;-64
2023/12/09 06:17:00;;;;;;;16.23;11.20;;;;;;;-11.66;100.00;102998.06;5051368;28;20029;-64
2023/12/09 06:19:26;;;;;;;15.20;11.00;;;;;;;-12.08;100.00;102914.97;5050174;28;20033;-65
2023/12/09 06:21:51;;;;;;;16.40;10.47;;;;;;;-11.73;100.00;102957.66;5050122;28;20405;-65
2023/12/09 06:24:17;;;;;;;20.70;10.83;;;;;;;-11.53;100.00;102980.34;5051894;28;20037;-64
2023/12/09 06:26:44;;;;;;;19.40;11.17;;;;;;;-11.37;99.95;102990.09;5054732;28;20086;-68
2023/12/09 06:29:16;;;;;;;16.98;9.98;;;;;;;-11.41;99.06;102983.16;5055198;28;20446;-67
2023/12/09 06:31:41;;;;;;;17.23;10.00;;;;;;;-11.44;99.10;102972.81;5055921;28;20518;-68
2023/12/09 06:34:07;;;;;;;16.93;11.43;;;;;;;-11.52;99.32;102958.94;5055107;28;20033;-65
2023/12/09 06:36:33;;;;;;;18.03;11.30;;;;;;;-11.50;99.58;102964.97;5052876;28;20484;-68
2023/12/09 06:38:58;;;;;;;19.70;11.60;;;;;;;-11.46;98.80;102964.19;5053025;28;20037;-67
2023/12/09 06:41:24;;;;;;;14.43;10.17;;;;;;;-11.52;98.87;102961.50;5054767;28;20068;-68
2023/12/09 06:43:49;;;;;;;18.07;12.10;;;;;;;-11.68;99.06;102943.19;5054383;28;20086;-64
2023/12/09 06:46:15;;;;;;;18.73;11.40;;;;;;;-11.64;99.70;102965.56;5054026;28;20471;-66
2023/12/09 06:48:41;;;;;;;19.77;11.60;;;;;;;-11.88;99.80;102942.81;5054868;28;20483;-66
2023/12/09 06:51:16;;;;;;;17.05;11.63;;;;;;;-12.04;100.00;102912.50;5054747;28;20056;-69
2023/12/09 06:53:43;;;;;;;20.17;10.90;;;;;;;-12.18;100.00;102877.94;5054967;28;20028;-70
2023/12/09 06:56:17;;;;;;;19.52;10.50;;;;;;;-11.67;100.00;102952.63;5053991;28;20037;-66
2023/12/09 06:58:43;;;;;;;19.40;11.90;;;;;;;-11.76;100.00;102952.47;5053875;28;20033;-69
2023/12/09 07:01:08;;;;;;;16.30;11.97;;;;;;;-11.80;99.98;102944.69;5054171;28;20412;-67
2023/12/09 07:03:37;;;;;;;22.50;12.60;;;;;;;-12.18;100.00;102895.03;5053028;28;20447;-67
2023/12/09 07:06:04;;;;;;;;;;;;;;;-11.84;100.00;102966.91;5054168;28;20343;-67
2023/12/09 07:08:30;;;;;;;22.10;13.85;;;;;;;-12.16;100.00;102925.06;5054058;28;19928;-66
2023/12/09 07:10:59;;;;;;;19.80;12.37;;;;;;;-11.93;100.00;102964.09;5052886;28;20037;-66
2023/12/09 07:13:25;;;;;;;20.55;13.30;;;;;;;-11.90;100.00;102947.03;5053289;28;20512;-67
2023/12/09 07:15:50;;;;;;;19.73;12.27;;;;;;;-11.77;100.00;102958.44;5054064;28;20120;-65
2023/12/09 07:18:16;;;;;;;22.53;12.80;;;;;;;-11.83;100.00;102942.06;5053909;28;20061;-66
2023/12/09 07:20:41;;;;;;;19.37;12.37;;;;;;;-11.70;100.00;102950.00;5054521;28;20081;-68
2023/12/09 07:23:07;;;;;;;21.53;11.97;;;;;;;-11.74;100.00;102924.22;5053276;28;20064;-70
2023/12/09 07:25:32;;;;;;;21.13;11.63;;;;;;;-11.65;99.51;102932.97;5054270;28;20033;-68
2023/12/09 07:27:58;;;;;;;22.37;12.77;;;;;;;-11.63;100.00;102926.16;5054664;28;20037;-69
2023/12/09 07:30:23;;;;;;;18.87;12.67;;;;;;;-11.61;99.29;102934.75;5054390;28;20033;-70
2023/12/09 07:32:49;;;;;;;20.50;11.77;;;;;;;-11.84;99.69;102910.34;5052937;28;20055;-70
2023/12/09 07:35:16;;;;;;;18.17;10.87;;;;;;;-11.75;98.82;102925.91;5052609;28;20064;-67
2023/12/09 07:37:43;;;;;;;16.75;11.02;;;;;;;-11.82;98.75;102929.25;5051608;28;20041;-65
2023/12/09 07:40:11;;;;;;;17.15;10.75;;;;;;;-11.85;99.59;102928.28;5052363;28;20033;-69
2023/12/09 07:42:38;;;;;;;18.27;11.50;;;;;;;-11.82;99.24;102939.53;5055180;28;20051;-69
2023/12/09 07:45:04;;;;;;;15.40;10.63;;;;;;;-11.79;99.01;102944.72;5051996;28;20041;-69
2023/12/09 07:47:31;;;;;;;20.98;13.02;;;;;;;-11.98;99.18;102901.47;5052857;28;20049;-67
2023/12/09 07:49:56;;;;;;;23.23;13.10;;;;;;;-11.81;99.24;102940.38;5052537;28;20031;-69
2023/12/09 07:52:22;;;;;;;21.60;15.23;;;;;;;-11.89;99.53;102942.78;5052673;28;20076;-69
2023/12/09 07:54:47;;;;;;;20.50;11.90;;;;;;;-12.22;99.54;102888.97;5052155;28;20464;-74
2023/12/09 07:57:14;;;;;;;21.33;13.57;;;;;;;-11.96;99.97;102930.63;5053330;28;20059;-69
2023/12/09 07:59:40;;;;;;;21.35;15.00;;;;;;;-11.98;98.79;102937.44;5053471;28;20029;-69
2023/12/09 08:02:05;;;;;;;20.83;12.57;;;;;;;-12.11;99.33;102935.47;5052615;28;20503;-71
2023/12/09 08:04:31;;;;;;;20.27;13.23;;;;;;;-12.19;99.01;102922.44;5053030;28;20064;-70
2023/12/09 08:06:58;;;;;;;19.93;12.90;;;;;;;-12.15;99.26;102941.34;5053318;28;20446;-72
2023/12/09 08:09:24;;;;;;;21.42;13.15;;;;;;;-12.14;99.04;102941.41;5053697;28;20072;-68
2023/12/09 08:11:49;;;;;;;20.93;12.07;;;;;;;-12.37;100.00;102902.38;5052514;28;20539;-66
2023/12/09 08:14:15;;;;;;;16.30;11.77;;;;;;;-12.06;98.06;102947.56;5053332;28;20039;-68
2023/12/09 08:16:41;;;;;;;17.57;10.87;;;;;;;-12.22;98.11;102920.66;5053164;28;20089;-70
2023/12/09 08:19:06;;;;;;;19.83;12.37;;;;;;;-12.22;97.74;102915.53;5053540;28;20519;-71
2023/12/09 08:21:36;;;;;;;18.83;11.67;;;;;;;-12.08;97.88;102940.66;5053733;28;20152;-68
2023/12/09 08:24:02;;;;;;;18.58;11.55;;;;;;;-12.10;97.73;102935.50;5052508;28;20139;-69
2023/12/09 08:26:29;;;;;;;20.88;11.30;;;;;;;-12.17;97.20;102927.59;5051021;28;20106;-67
2023/12/09 08:28:55;;;;;;;17.73;11.23;;;;;;;-12.15;97.20;102936.22;5052611;28;20037;-67
2023/12/09 08:31:21;;;;;;;17.45;11.20;;;;;;;-12.20;96.63;102930.97;5052174;28;20029;-68
2023/12/09 08:33:46;;;;;;;22.73;13.00;;;;;;;-12.26;96.79;102931.72;5051687;28;20035;-67
2023/12/09 08:36:12;;;;;;;16.17;11.60;;;;;;;-12.44;96.88;102910.75;5052036;28;20036;-66
2023/12/09 08:38:38;;;;;;;18.13;10.97;;;;;;;-12.27;97.76;102932.53;5049183;28;20583;-68
2023/12/09 08:41:03;;;;;;;22.37;13.00;;;;;;;-12.20;97.67;102915.56;5052146;28;20037;-73
2023/12/09 08:43:29;;;;;;;26.10;14.73;;;;;;;-12.14;96.60;102922.53;5052749;28;20128;-71
2023/12/09 08:45:55;;;;;;;23.40;14.00;;;;;;;-12.31;96.06;102871.69;5051768;28;20033;-70
2023/12/09 08:48:20;;;;;;;26.50;14.83;;;;;;;-12.04;95.15;102924.47;5051398;28;20040;-71
2023/12/09 08:51:27;;;;;;;21.73;11.97;;;;;;;-12.06;94.80;102936.44;5052924;28;20066;-68
2023/12/09 08:53:52;;;;;;;19.00;11.93;;;;;;;-12.29;95.21;102890.56;5053423;28;20046;-72
2023/12/09 08:56:18;;;;;;;23.93;13.00;;;;;;;-12.14;93.68;102914.81;5051192;28;20040;-68
2023/12/09 08:58:43;;;;;;;21.23;12.10;;;;;;;-12.51;94.53;102863.53;5052016;28;20491;-67
2023/12/09 09:01:11;;;;;;;18.93;12.07;;;;;;;-12.20;94.09;102916.44;5051475;28;20040;-70
2023/12/09 09:03:36;;;;;;;18.30;11.48;;;;;;;-12.27;93.07;102909.44;5050230;28;20035;-66
2023/12/09 09:06:03;;;;;;;21.20;11.53;;;;;;;-12.52;93.39;102900.31;5050836;28;20049;-68
2023/12/09 09:08:30;;;;;;;18.92;11.80;;;;;;;-12.52;94.64;102895.16;5052382;28;20079;-69
2023/12/09 09:10:56;;;;;;;19.10;11.63;;;;;;;-12.43;94.61;102889.41;5052137;28;20449;-66
2023/12/09 09:13:21;;;;;;;21.20;12.60;;;;;;;-12.29;94.58;102903.41;5050512;28;20035;-66
2023/12/09 09:15:47;;;;;;;14.50;11.93;;;;;;;-12.18;93.32;102915.59;5051523;28;20413;-69
2023/12/09 09:18:13;;;;;;;17.73;12.93;;;;;;;-12.21;92.70;102916.41;5051365;28;20044;-69
2023/12/09 09:20:39;;;;;;;29.40;18.35;;;;;;;-12.32;93.80;102910.16;5051407;28;20536;-69
2023/12/09 09:23:06;;;;;;;19.63;11.93;;;;;;;-12.18;94.61;102910.47;5052035;28;20040;-68
2023/12/09 09:25:32;;;;;;;23.97;12.47;;;;;;;-12.04;93.13;102904.78;5052815;28;20032;-72
2023/12/09 09:27:57;;;;;;;23.60;13.40;;;;;;;-12.16;91.61;102901.94;5051574;28;20049;-68
2023/12/09 09:30:23;;;;;;;23.20;12.07;;;;;;;-12.15;93.46;102877.13;5050957;28;20037;-69
2023/12/09 09:32:49;;;;;;;23.63;13.75;;;;;;;-11.86;93.06;102923.97;5049933;28;20275;-67
2023/12/09 09:35:15;;;;;;;23.03;12.40;;;;;;;-11.85;91.51;102915.44;5051650;28;20025;-68
2023/12/09 09:37:40;;;;;;;22.43;13.03;;;;;;;-11.87;91.22;102920.53;5050209;28;20037;-70
2023/12/09 09:40:07;;;;;;;21.90;11.87;;;;;;;-11.93;91.00;102920.44;5051286;28;20079;-69
2023/12/09 09:42:32;;;;;;;19.45;11.95;;;;;;;-11.92;91.12;102906.75;5052745;28;20033;-71
2023/12/09 09:45:10;;;;;;;20.10;13.40;;;;;;;-11.94;90.93;102904.16;5051667;28;20120;-67
2023/12/09 09:47:36;;;;;;;23.75;14.15;;;;;;;-12.20;91.25;102859.94;5050956;28;20033;-69
2023/12/09 09:50:06;;;;;;;22.90;13.55;;;;;;;-13.48;91.50;102651.06;5050213;28;20060;-70
2023/12/09 09:52:35;;;;;;;17.17;10.88;;;;;;;-12.34;91.57;102863.91;5052600;28;20082;-71
2023/12/09 09:55:03;;;;;;;20.35;12.93;;;;;;;-12.18;92.55;102877.06;5053324;28;20551;-71
2023/12/09 09:57:29;;;;;;;17.52;11.02;;;;;;;-12.05;91.53;102873.94;5053375;28;20059;-67
2023/12/09 09:59:57;;;;;;;20.80;12.17;;;;;;;-12.11;92.01;102858.41;5053401;28;20100;-70
2023/12/09 10:02:25;;;;;;;20.98;13.70;;;;;;;-12.25;90.32;102841.00;5055137;28;20037;-67
2023/12/09 10:04:51;;;;;;;24.25;15.20;;;;;;;-12.26;90.74;102849.53;5037111;28;20117;-66
2023/12/09 10:07:18;;;;;;;33.80;15.87;;;;;;;-12.16;91.57;102870.25;5054747;28;20140;-68
2023/12/09 10:09:44;;;;;;;26.20;14.25;;;;;;;-12.07;91.47;102894.47;5054765;28;20064;-68
2023/12/09 10:12:09;;;;;;;22.30;12.67;;;;;;;-12.25;91.69;102852.97;5053138;28;20515;-69
2023/12/09 10:14:35;;;;;;;21.30;14.90;;;;;;;-12.24;92.11;102880.38;5054113;28;20033;-69
2023/12/09 10:17:01;;;;;;;22.67;13.57;;;;;;;-12.42;92.72;102852.63;5055242;28;20128;-69
2023/12/09 10:19:27;;;;;;;25.48;14.10;;;;;;;-12.58;93.21;102823.19;5053697;28;20041;-69
2023/12/09 10:21:52;;;;;;;25.03;14.10;;;;;;;-12.33;93.00;102851.94;5053504;28;20037;-72
2023/12/09 10:24:18;;;;;;;20.83;14.03;;;;;;;-12.48;92.69;102851.59;5053301;28;20614;-66
2023/12/09 10:26:45;;;;;;;24.30;15.10;;;;;;;-12.42;93.33;102869.72;5036460;28;20068;-69
2023/12/09 10:29:11;;;;;;;24.60;15.43;;;;;;;-12.40;94.16;102879.19;5053305;28;20037;-65
2023/12/09 10:31:37;;;;;;;25.73;14.10;;;;;;;-12.82;93.51;102794.41;5055510;28;20033;-68
2023/12/09 10:34:03;;;;;;;19.70;13.03;;;;;;;-12.23;94.20;102872.72;5037867;28;20275;-67
2023/12/09 10:36:32;;;;;;;23.37;13.40;;;;;;;-12.25;93.57;102856.41;5054378;28;20039;-69
2023/12/09 10:38:57;;;;;;;26.17;14.70;;;;;;;-12.13;92.79;102858.38;5053281;28;20037;-69
2023/12/09 10:41:26;;;;;;;25.40;13.70;;;;;;;-12.08;92.57;102868.75;5054302;28;20094;-66
2023/12/09 10:43:53;;;;;;;;;;;;;;;-12.06;93.70;102862.81;5055159;28;20547;-71
2023/12/09 10:46:19;;;;;;;21.27;12.20;;;;;;;-12.08;92.95;102861.03;5053250;28;20364;-71
2023/12/09 10:48:44;;;;;;;31.93;14.07;;;;;;;-12.12;92.31;102854.09;5053470;28;20033;-72
2023/12/09 10:51:10;;;;;;;25.23;14.43;;;;;;;-12.28;93.14;102814.38;5055606;28;20025;-67
2023/12/09 10:53:36;;;;;;;21.57;12.60;;;;;;;-12.56;92.78;102771.88;5055849;28;20041;-68
2023/12/09 10:56:02;;;;;;;22.20;12.90;;;;;;;-12.27;92.73;102826.41;5053914;28;20033;-68
2023/12/09 10:58:27;;;;;;;23.80;13.18;;;;;;;-12.35;93.04;102821.09;5035999;28;20373;-68
2023/12/09 11:00:57;;;;;;;21.50;12.50;;;;;;;-12.30;93.81;102832.34;5052906;28;20043;-69